Estación meteorológica de Montseny - Mas Joan (Vallès Oriental, P.N.del Montseny)

Consulta los datos en tiempo real de la estación meteorológica de Montseny - Mas Joan





Hora UTC 10:10
Temperatura 18.0 ºC
Humedad 59.2 %
Pluja 0.2 mm
Velocidad viento 2.2 km/h
Dirección viento ENE
Radiación solar 355.7 W/m²

Datos diarios 2026-05-04



Hora UTC (invierno +1h; verano +2h)
Temperatura (ºC) Humedad (%) Velocidad viento (km/h) Precipitación (mm) Radiación solar (W/m²)
Hora UTC Aire Humedad Vel. Dir. Vel. Max Dir. Intent. máx 5 min. Rad. Sol.
00:05 11.3 97.4 1.1 NNW 2.4 SSW 0.0 0.0
00:10 11.3 97.3 1.6 NNW 2.4 NNW 0.0 0.0
00:15 11.3 97.3 2.1 NW 3.4 NW 0.0 0.0
00:20 11.3 97.3 1.5 W 2.7 NW 0.0 0.0
00:25 11.3 97.2 1.6 W 3.8 SW 0.0 0.0
00:30 11.2 97.2 2.0 W 2.8 W 0.0 0.0
00:35 11.2 97.2 2.5 WSW 4.0 WSW 0.1 0.0
00:40 11.2 97.1 2.0 W 3.2 WSW 0.0 0.0
00:45 11.2 97.1 2.8 W 4.6 WNW 0.0 0.0
00:50 11.2 97.0 2.5 W 4.5 NNW 0.0 0.0
00:55 11.1 96.9 3.9 WNW 7.7 NNW 0.0 0.0
01:00 11.1 96.7 3.5 WNW 7.9 W 0.0 0.1
01:05 11.3 96.2 3.3 W 8.3 NW 0.0 0.0
01:10 11.2 95.2 3.6 W 8.4 NW 0.0 0.2
01:15 11.3 94.3 2.1 WSW 3.6 W 0.0 0.1
01:20 11.3 94.2 2.8 W 4.5 WNW 0.0 0.0
01:25 11.3 94.5 3.0 W 5.6 WNW 0.0 0.1
01:30 11.2 94.3 2.2 WSW 5.3 SSW 0.0 0.3
01:35 11.3 94.1 2.3 WSW 4.5 SSW 0.0 0.2
01:40 11.3 94.1 2.1 WSW 4.8 SSW 0.1 0.1
01:45 11.3 94.6 2.5 WSW 3.4 SW 0.0 0.1
01:50 11.3 95.0 2.8 WSW 4.0 WSW 0.0 0.1
01:55 11.2 95.2 2.6 W 4.2 WNW 0.0 0.5
02:00 11.2 95.1 2.4 W 5.1 WNW 0.0 0.2
02:05 11.3 95.4 2.2 W 5.0 WNW 0.0 0.1
02:10 11.3 95.5 2.1 WSW 3.5 W 0.0 0.1
02:15 11.2 95.6 2.2 SW 3.6 WSW 0.0 0.1
02:20 11.2 95.6 3.1 W 6.7 NNW 0.0 0.3
02:25 11.3 95.1 3.2 W 6.2 NNW 0.0 0.2
02:30 11.3 94.7 3.2 WNW 4.8 NW 0.0 0.3
02:35 11.4 93.9 2.4 W 4.4 N 0.0 0.2
02:40 11.4 93.1 2.9 W 5.0 NNW 0.0 0.4
02:45 11.5 92.5 3.3 WNW 5.8 WNW 0.0 0.4
02:50 11.5 92.8 2.8 WSW 5.0 NW 0.0 0.2
02:55 11.4 93.4 1.8 WSW 3.1 W 0.0 0.3
03:00 11.4 94.2 2.0 W 3.2 W 0.0 0.3
03:05 11.4 94.8 2.4 W 3.6 W 0.0 0.4
03:10 11.4 95.1 2.9 W 5.7 WNW 0.0 0.5
03:15 11.4 95.1 2.0 W 4.6 W 0.0 0.4
03:20 11.5 95.0 2.8 W 5.0 WNW 0.0 0.5
03:25 11.6 94.8 2.8 W 5.3 NW 0.0 0.3
03:30 11.6 94.0 3.6 WNW 7.6 NNW 0.0 0.5
03:35 11.7 92.3 3.6 WNW 6.3 NW 0.0 0.1
03:40 11.7 91.6 2.7 WSW 5.1 SSW 0.0 0.0
03:45 11.7 92.1 2.2 W 3.5 NW 0.0 0.0
03:50 11.6 93.3 2.9 WNW 5.0 WNW 0.0 0.1
03:55 11.6 93.7 1.9 WSW 3.2 WSW 0.0 0.0
04:00 11.6 94.1 1.8 W 3.2 SSW 0.0 0.0
04:05 11.8 94.6 2.3 W 4.1 WNW 0.0 0.1
04:10 11.8 95.0 2.4 NW 4.4 WNW 0.0 0.1
04:15 11.9 95.3 2.2 W 4.0 NW 0.0 0.3
04:20 12.0 95.6 2.4 SSW 5.1 SW 0.0 0.4
04:25 12.0 95.6 1.6 SW 2.8 WSW 0.0 0.1
04:30 12.0 95.5 2.0 WSW 2.8 WSW 0.0 0.1
04:35 12.0 95.6 1.9 SW 2.9 W 0.0 0.1
04:40 12.0 95.7 3.1 WNW 6.8 WNW 0.0 0.6
04:45 12.0 95.6 2.6 W 5.0 NW 0.0 1.4
04:50 11.9 95.1 3.1 WSW 6.1 SW 0.0 2.5
04:55 11.9 93.7 3.8 W 6.6 NNW 0.0 3.4
05:00 12.1 92.0 3.5 NNW 8.0 N 0.0 3.8
05:05 12.2 91.5 2.9 W 6.3 WNW 0.0 5.1
05:10 12.2 92.3 2.0 WSW 3.2 WSW 0.0 8.1
05:15 12.1 93.1 2.5 WSW 4.4 NW 0.0 13.5
05:20 12.0 93.7 1.6 WSW 2.4 W 0.0 15.7
05:25 11.9 94.1 2.6 NW 4.7 NW 0.0 20.4
05:30 11.8 92.6 4.1 N 7.2 N 0.0 23.8
05:35 12.1 89.0 3.6 NW 8.2 NW 0.0 36.6
05:40 12.4 88.2 3.9 NW 8.6 NNW 0.0 77.3
05:45 12.6 80.6 3.8 NNW 8.6 NNW 0.0 84.9
05:50 13.2 84.8 1.8 S 3.6 SSW 0.0 159.5
05:55 13.5 80.8 3.7 N 9.1 N 0.0 182.9
06:00 14.0 78.1 3.9 NNW 7.5 NNW 0.0 193.9
06:05 14.0 75.2 5.1 NNW 10.5 NNW 0.0 179.0
06:10 13.8 74.5 5.1 NNW 10.2 WNW 0.0 185.6
06:15 13.8 75.7 5.6 NNW 9.8 N 0.0 273.5
06:20 13.9 74.3 5.7 NNW 11.4 N 0.0 281.4
06:25 14.2 72.1 2.9 N 8.0 NW 0.0 294.4
06:30 14.6 71.9 3.7 NNE 7.5 NNW 0.0 308.2
06:35 14.7 72.4 4.5 NNW 9.6 NNW 0.0 324.4
06:40 14.8 73.2 4.8 NNW 7.8 N 0.0 343.6
06:45 15.0 72.4 4.6 N 9.3 NNW 0.0 359.4
06:50 15.3 72.1 4.5 NNW 11.9 NNW 0.0 379.5
06:55 15.4 70.1 3.9 N 7.8 NW 0.0 395.6
07:00 15.9 71.0 3.8 N 9.0 NW 0.0 413.7
07:05 15.8 70.5 7.6 N 15.7 NNW 0.0 432.5
07:10 15.7 70.0 8.5 N 14.8 NNW 0.0 453.7
07:15 15.7 70.2 6.6 N 18.3 N 0.0 474.4
07:20 15.8 70.1 7.6 NNW 16.7 N 0.0 477.5
07:25 15.8 69.3 8.3 NNW 15.9 WNW 0.0 508.8
07:30 15.9 69.8 8.0 NNW 17.1 NNW 0.0 533.5
07:35 16.1 69.1 5.3 N 14.5 N 0.0 546.4
07:40 16.4 68.6 4.4 NE 9.9 ENE 0.0 394.8
07:45 16.7 67.3 4.7 SE 11.1 NNW 0.0 534.3
07:50 16.6 67.2 5.8 NE 17.5 NNW 0.0 594.6
07:55 17.1 66.7 5.0 NNE 13.0 NE 0.0 557.2
08:00 17.0 66.1 4.5 NW 10.4 NNE 0.0 511.9
08:05 17.1 66.0 3.2 N 7.3 NW 0.0 531.4
08:10 17.0 65.7 6.7 NW 12.4 NW 0.0 596.4
08:15 17.2 66.1 3.5 NW 8.7 NW 0.0 539.1
08:20 17.4 64.3 3.9 N 10.4 N 0.0 492.1
08:25 17.6 63.9 3.5 NNW 7.1 SSW 0.0 653.6
08:30 17.9 63.2 3.3 ENE 7.9 NE 0.0 514.2
08:35 18.1 63.6 4.1 E 8.0 ESE 0.0 652.5
08:40 18.6 62.5 4.7 NNE 8.4 ENE 0.0 775.2
08:45 18.5 62.1 4.7 NE 12.6 NE 0.0 819.0
08:50 18.7 62.3 5.5 SSE 14.5 SSW 0.0 846.0
08:55 18.9 63.3 5.0 SE 9.5 SSE 0.0 967.0
09:00 19.5 61.3 5.2 ESE 12.1 ESE 0.0 725.1
09:05 19.0 62.9 5.1 SSE 11.3 S 0.0 566.9
09:10 18.4 64.9 5.3 ENE 10.9 ENE 0.0 639.5
09:15 18.8 63.7 4.8 N 12.4 N 0.0 864.0
09:20 18.3 60.7 6.6 SE 16.8 SSE 0.0 588.7
09:25 18.6 63.7 7.6 NNW 21.6 S 0.0 624.8
09:30 18.7 61.3 6.1 NNE 14.6 N 0.0 565.0
09:35 18.5 60.3 7.0 NNW 14.7 N 0.0 557.3
09:40 18.4 59.8 6.3 N 12.4 NNW 0.0 720.3
09:45 18.6 60.3 3.1 SSW 7.9 SSE 0.0 441.1
09:50 18.6 58.8 5.9 SSE 11.1 SSE 0.0 344.4
09:55 18.4 59.8 4.7 ENE 11.4 N 0.0 361.8
10:00 18.3 59.3 3.1 NNE 8.9 E 0.0 396.7
10:05 18.1 59.1 4.6 NNE 9.3 ENE 0.0 379.3
10:10 18.0 59.2 2.2 ENE 4.6 W 0.0 355.7
Máxima 19.5 97.4 8.5 N 21.6 S 0.1 967.0
Mínima 11.1 58.8
Total 0.2